sensor_id;sensor_type;location;lat;lon;timestamp;P1;durP1;ratioP1;P2;durP2;ratioP2
24261;SDS011;12385;51.412;5.540;2023-05-10T00:00:23;54.47;;;22.00;;
24261;SDS011;12385;51.412;5.540;2023-05-10T00:02:48;55.70;;;22.63;;
24261;SDS011;12385;51.412;5.540;2023-05-10T00:05:14;62.15;;;23.70;;
24261;SDS011;12385;51.412;5.540;2023-05-10T00:07:40;60.03;;;25.00;;
24261;SDS011;12385;51.412;5.540;2023-05-10T00:10:09;73.88;;;25.27;;
24261;SDS011;12385;51.412;5.540;2023-05-10T00:12:36;65.03;;;25.40;;
24261;SDS011;12385;51.412;5.540;2023-05-10T00:15:02;58.70;;;24.13;;
24261;SDS011;12385;51.412;5.540;2023-05-10T00:17:28;65.40;;;25.27;;
24261;SDS011;12385;51.412;5.540;2023-05-10T00:19:54;59.55;;;26.20;;
24261;SDS011;12385;51.412;5.540;2023-05-10T00:22:20;79.88;;;30.83;;
24261;SDS011;12385;51.412;5.540;2023-05-10T00:24:45;83.53;;;31.92;;
24261;SDS011;12385;51.412;5.540;2023-05-10T00:27:11;71.53;;;29.92;;
24261;SDS011;12385;51.412;5.540;2023-05-10T00:29:36;83.82;;;31.65;;
24261;SDS011;12385;51.412;5.540;2023-05-10T00:32:02;100.05;;;33.53;;
24261;SDS011;12385;51.412;5.540;2023-05-10T00:34:28;110.78;;;34.17;;
24261;SDS011;12385;51.412;5.540;2023-05-10T00:36:54;101.93;;;35.10;;
24261;SDS011;12385;51.412;5.540;2023-05-10T00:39:19;141.75;;;38.88;;
24261;SDS011;12385;51.412;5.540;2023-05-10T00:41:45;100.35;;;37.38;;
24261;SDS011;12385;51.412;5.540;2023-05-10T00:44:11;116.45;;;37.75;;
24261;SDS011;12385;51.412;5.540;2023-05-10T00:46:36;107.47;;;39.65;;
24261;SDS011;12385;51.412;5.540;2023-05-10T00:49:02;137.82;;;42.72;;
24261;SDS011;12385;51.412;5.540;2023-05-10T00:51:28;115.35;;;38.22;;
24261;SDS011;12385;51.412;5.540;2023-05-10T00:53:54;114.22;;;39.97;;
24261;SDS011;12385;51.412;5.540;2023-05-10T00:56:21;125.80;;;41.10;;
24261;SDS011;12385;51.412;5.540;2023-05-10T00:58:48;110.82;;;39.80;;
24261;SDS011;12385;51.412;5.540;2023-05-10T01:01:14;116.95;;;39.67;;
24261;SDS011;12385;51.412;5.540;2023-05-10T01:03:40;121.57;;;40.47;;
24261;SDS011;12385;51.412;5.540;2023-05-10T01:06:06;114.90;;;39.30;;
24261;SDS011;12385;51.412;5.540;2023-05-10T01:08:32;120.18;;;40.42;;
24261;SDS011;12385;51.412;5.540;2023-05-10T01:10:58;135.40;;;41.50;;
24261;SDS011;12385;51.412;5.540;2023-05-10T01:13:34;124.68;;;42.85;;
24261;SDS011;12385;51.412;5.540;2023-05-10T01:16:02;117.88;;;39.75;;
24261;SDS011;12385;51.412;5.540;2023-05-10T01:18:36;132.05;;;41.63;;
24261;SDS011;12385;51.412;5.540;2023-05-10T01:21:06;146.73;;;43.03;;
24261;SDS011;12385;51.412;5.540;2023-05-10T01:23:45;122.00;;;41.00;;
24261;SDS011;12385;51.412;5.540;2023-05-10T01:26:23;138.95;;;42.35;;
24261;SDS011;12385;51.412;5.540;2023-05-10T01:32:25;138.15;;;42.20;;
24261;SDS011;12385;51.412;5.540;2023-05-10T01:37:59;140.52;;;43.15;;
24261;SDS011;12385;51.412;5.540;2023-05-10T01:40:42;174.10;;;43.80;;
24261;SDS011;12385;51.412;5.540;2023-05-10T01:43:33;145.50;;;43.80;;
24261;SDS011;12385;51.412;5.540;2023-05-10T01:46:08;154.98;;;45.58;;
24261;SDS011;12385;51.412;5.540;2023-05-10T01:48:48;138.88;;;44.22;;
24261;SDS011;12385;51.412;5.540;2023-05-10T01:51:19;137.63;;;44.95;;
24261;SDS011;12385;51.412;5.540;2023-05-10T01:53:48;159.18;;;47.88;;
24261;SDS011;12385;51.412;5.540;2023-05-10T01:56:16;134.73;;;45.55;;
24261;SDS011;12385;51.412;5.540;2023-05-10T01:58:46;184.98;;;46.67;;
24261;SDS011;12385;51.412;5.540;2023-05-10T02:01:13;141.50;;;44.95;;
24261;SDS011;12385;51.412;5.540;2023-05-10T02:03:40;144.10;;;45.95;;
24261;SDS011;12385;51.412;5.540;2023-05-10T02:06:07;169.38;;;47.97;;
24261;SDS011;12385;51.412;5.540;2023-05-10T02:08:35;147.75;;;46.20;;
24261;SDS011;12385;51.412;5.540;2023-05-10T02:11:02;153.60;;;46.60;;
24261;SDS011;12385;51.412;5.540;2023-05-10T02:13:30;142.63;;;46.10;;
24261;SDS011;12385;51.412;5.540;2023-05-10T02:15:59;173.02;;;49.47;;
24261;SDS011;12385;51.412;5.540;2023-05-10T02:18:26;144.40;;;46.88;;
24261;SDS011;12385;51.412;5.540;2023-05-10T02:20:52;151.25;;;48.50;;
24261;SDS011;12385;51.412;5.540;2023-05-10T02:23:21;163.48;;;48.28;;
24261;SDS011;12385;51.412;5.540;2023-05-10T02:25:48;143.15;;;47.58;;
24261;SDS011;12385;51.412;5.540;2023-05-10T02:28:16;157.88;;;48.30;;
24261;SDS011;12385;51.412;5.540;2023-05-10T02:30:43;149.68;;;47.22;;
24261;SDS011;12385;51.412;5.540;2023-05-10T02:33:09;177.32;;;48.33;;
24261;SDS011;12385;51.412;5.540;2023-05-10T02:35:35;142.23;;;49.58;;
24261;SDS011;12385;51.412;5.540;2023-05-10T02:38:03;157.32;;;52.35;;
24261;SDS011;12385;51.412;5.540;2023-05-10T02:40:29;159.98;;;51.90;;
24261;SDS011;12385;51.412;5.540;2023-05-10T02:42:57;172.93;;;53.90;;
24261;SDS011;12385;51.412;5.540;2023-05-10T02:45:27;161.77;;;53.90;;
24261;SDS011;12385;51.412;5.540;2023-05-10T02:47:56;159.48;;;54.83;;
24261;SDS011;12385;51.412;5.540;2023-05-10T02:50:22;176.38;;;54.17;;
24261;SDS011;12385;51.412;5.540;2023-05-10T02:52:52;174.70;;;56.15;;
24261;SDS011;12385;51.412;5.540;2023-05-10T02:55:25;166.65;;;56.13;;
24261;SDS011;12385;51.412;5.540;2023-05-10T02:58:02;157.45;;;56.55;;
24261;SDS011;12385;51.412;5.540;2023-05-10T03:00:28;192.65;;;58.28;;
24261;SDS011;12385;51.412;5.540;2023-05-10T03:02:54;171.43;;;58.90;;
24261;SDS011;12385;51.412;5.540;2023-05-10T03:05:25;178.30;;;61.85;;
24261;SDS011;12385;51.412;5.540;2023-05-10T03:07:50;160.77;;;58.92;;
24261;SDS011;12385;51.412;5.540;2023-05-10T03:10:17;169.98;;;57.75;;
24261;SDS011;12385;51.412;5.540;2023-05-10T03:16:05;191.23;;;58.17;;
24261;SDS011;12385;51.412;5.540;2023-05-10T03:21:07;199.80;;;58.35;;
24261;SDS011;12385;51.412;5.540;2023-05-10T03:23:43;159.77;;;56.92;;
24261;SDS011;12385;51.412;5.540;2023-05-10T03:26:09;161.05;;;58.13;;
24261;SDS011;12385;51.412;5.540;2023-05-10T03:28:37;200.15;;;59.80;;
24261;SDS011;12385;51.412;5.540;2023-05-10T03:31:04;175.45;;;58.40;;
24261;SDS011;12385;51.412;5.540;2023-05-10T03:33:31;153.88;;;55.08;;
24261;SDS011;12385;51.412;5.540;2023-05-10T03:35:57;168.93;;;55.88;;
24261;SDS011;12385;51.412;5.540;2023-05-10T03:38:23;162.35;;;54.83;;
24261;SDS011;12385;51.412;5.540;2023-05-10T03:40:48;194.93;;;57.70;;
24261;SDS011;12385;51.412;5.540;2023-05-10T03:43:14;177.07;;;54.78;;
24261;SDS011;12385;51.412;5.540;2023-05-10T03:45:39;158.00;;;53.58;;
24261;SDS011;12385;51.412;5.540;2023-05-10T03:48:05;162.77;;;52.97;;
24261;SDS011;12385;51.412;5.540;2023-05-10T03:50:32;150.13;;;50.88;;
24261;SDS011;12385;51.412;5.540;2023-05-10T03:52:58;141.95;;;50.10;;
24261;SDS011;12385;51.412;5.540;2023-05-10T03:55:24;146.32;;;50.38;;
24261;SDS011;12385;51.412;5.540;2023-05-10T03:57:49;141.63;;;48.72;;
24261;SDS011;12385;51.412;5.540;2023-05-10T04:00:15;140.73;;;50.00;;
24261;SDS011;12385;51.412;5.540;2023-05-10T04:02:41;141.18;;;49.17;;
24261;SDS011;12385;51.412;5.540;2023-05-10T04:05:07;145.52;;;49.58;;
24261;SDS011;12385;51.412;5.540;2023-05-10T04:07:32;149.88;;;50.40;;
24261;SDS011;12385;51.412;5.540;2023-05-10T04:09:58;158.73;;;50.47;;
24261;SDS011;12385;51.412;5.540;2023-05-10T04:12:24;171.50;;;51.22;;
24261;SDS011;12385;51.412;5.540;2023-05-10T04:14:49;151.27;;;50.90;;
24261;SDS011;12385;51.412;5.540;2023-05-10T04:17:16;152.85;;;50.65;;
24261;SDS011;12385;51.412;5.540;2023-05-10T04:19:41;156.25;;;50.80;;
24261;SDS011;12385;51.412;5.540;2023-05-10T04:22:07;182.15;;;54.53;;
24261;SDS011;12385;51.412;5.540;2023-05-10T04:24:33;173.27;;;53.60;;
24261;SDS011;12385;51.412;5.540;2023-05-10T04:26:58;184.05;;;54.20;;
24261;SDS011;12385;51.412;5.540;2023-05-10T04:29:24;183.90;;;55.83;;
24261;SDS011;12385;51.412;5.540;2023-05-10T04:31:50;190.13;;;58.60;;
24261;SDS011;12385;51.412;5.540;2023-05-10T04:34:15;194.13;;;59.53;;
24261;SDS011;12385;51.412;5.540;2023-05-10T04:36:41;198.95;;;58.17;;
24261;SDS011;12385;51.412;5.540;2023-05-10T04:39:07;197.13;;;57.78;;
24261;SDS011;12385;51.412;5.540;2023-05-10T04:41:33;227.82;;;60.42;;
24261;SDS011;12385;51.412;5.540;2023-05-10T04:43:59;220.98;;;59.40;;
24261;SDS011;12385;51.412;5.540;2023-05-10T04:46:25;203.63;;;59.88;;
24261;SDS011;12385;51.412;5.540;2023-05-10T04:48:50;228.57;;;62.20;;
24261;SDS011;12385;51.412;5.540;2023-05-10T04:51:16;216.77;;;60.40;;
24261;SDS011;12385;51.412;5.540;2023-05-10T04:53:41;183.40;;;58.03;;
24261;SDS011;12385;51.412;5.540;2023-05-10T04:56:07;190.45;;;59.20;;
24261;SDS011;12385;51.412;5.540;2023-05-10T04:58:32;207.98;;;61.40;;
24261;SDS011;12385;51.412;5.540;2023-05-10T05:01:04;188.48;;;58.42;;
24261;SDS011;12385;51.412;5.540;2023-05-10T05:03:33;167.18;;;56.58;;
24261;SDS011;12385;51.412;5.540;2023-05-10T05:06:00;174.43;;;57.38;;
24261;SDS011;12385;51.412;5.540;2023-05-10T05:08:25;188.02;;;59.10;;
24261;SDS011;12385;51.412;5.540;2023-05-10T05:10:51;161.55;;;56.10;;
24261;SDS011;12385;51.412;5.540;2023-05-10T05:13:16;163.07;;;55.70;;
24261;SDS011;12385;51.412;5.540;2023-05-10T05:15:42;187.63;;;56.15;;
24261;SDS011;12385;51.412;5.540;2023-05-10T05:18:08;156.80;;;53.95;;
24261;SDS011;12385;51.412;5.540;2023-05-10T05:20:33;150.02;;;53.70;;
24261;SDS011;12385;51.412;5.540;2023-05-10T05:22:59;155.27;;;53.22;;
24261;SDS011;12385;51.412;5.540;2023-05-10T05:25:25;140.23;;;52.03;;
24261;SDS011;12385;51.412;5.540;2023-05-10T05:27:51;122.18;;;48.88;;
24261;SDS011;12385;51.412;5.540;2023-05-10T05:30:16;127.63;;;48.25;;
24261;SDS011;12385;51.412;5.540;2023-05-10T05:32:42;117.60;;;46.95;;
24261;SDS011;12385;51.412;5.540;2023-05-10T05:35:07;124.70;;;48.20;;
24261;SDS011;12385;51.412;5.540;2023-05-10T05:37:34;108.82;;;45.17;;
24261;SDS011;12385;51.412;5.540;2023-05-10T05:40:00;110.32;;;45.47;;
24261;SDS011;12385;51.412;5.540;2023-05-10T05:42:26;94.82;;;43.05;;
24261;SDS011;12385;51.412;5.540;2023-05-10T05:44:52;95.65;;;41.90;;
24261;SDS011;12385;51.412;5.540;2023-05-10T05:47:18;84.97;;;39.58;;
24261;SDS011;12385;51.412;5.540;2023-05-10T05:49:43;89.68;;;40.30;;
24261;SDS011;12385;51.412;5.540;2023-05-10T05:52:12;76.47;;;36.72;;
24261;SDS011;12385;51.412;5.540;2023-05-10T05:54:37;77.93;;;37.30;;
24261;SDS011;12385;51.412;5.540;2023-05-10T05:57:03;71.55;;;35.50;;
24261;SDS011;12385;51.412;5.540;2023-05-10T05:59:29;66.88;;;35.38;;
24261;SDS011;12385;51.412;5.540;2023-05-10T06:01:54;64.05;;;33.35;;
24261;SDS011;12385;51.412;5.540;2023-05-10T06:04:20;69.72;;;34.75;;
24261;SDS011;12385;51.412;5.540;2023-05-10T06:06:45;67.13;;;34.95;;
24261;SDS011;12385;51.412;5.540;2023-05-10T06:09:11;67.40;;;33.83;;
24261;SDS011;12385;51.412;5.540;2023-05-10T06:11:37;63.17;;;33.78;;
24261;SDS011;12385;51.412;5.540;2023-05-10T06:14:04;65.20;;;34.50;;
24261;SDS011;12385;51.412;5.540;2023-05-10T06:16:31;63.55;;;34.25;;
24261;SDS011;12385;51.412;5.540;2023-05-10T06:18:57;65.78;;;34.03;;
24261;SDS011;12385;51.412;5.540;2023-05-10T06:21:23;64.15;;;32.97;;
24261;SDS011;12385;51.412;5.540;2023-05-10T06:23:48;68.68;;;35.47;;
24261;SDS011;12385;51.412;5.540;2023-05-10T06:26:14;58.78;;;32.92;;
24261;SDS011;12385;51.412;5.540;2023-05-10T06:28:40;61.20;;;32.08;;
24261;SDS011;12385;51.412;5.540;2023-05-10T06:31:06;62.10;;;31.65;;
24261;SDS011;12385;51.412;5.540;2023-05-10T06:33:32;64.50;;;33.47;;
24261;SDS011;12385;51.412;5.540;2023-05-10T06:35:58;60.17;;;32.28;;
24261;SDS011;12385;51.412;5.540;2023-05-10T06:38:23;63.53;;;33.25;;
24261;SDS011;12385;51.412;5.540;2023-05-10T06:40:49;65.30;;;34.15;;
24261;SDS011;12385;51.412;5.540;2023-05-10T06:43:14;63.40;;;33.50;;
24261;SDS011;12385;51.412;5.540;2023-05-10T06:45:40;69.93;;;34.65;;
24261;SDS011;12385;51.412;5.540;2023-05-10T06:48:06;62.55;;;34.22;;
24261;SDS011;12385;51.412;5.540;2023-05-10T06:50:32;62.25;;;34.28;;
24261;SDS011;12385;51.412;5.540;2023-05-10T06:52:58;63.53;;;34.90;;
24261;SDS011;12385;51.412;5.540;2023-05-10T06:55:24;63.50;;;34.33;;
24261;SDS011;12385;51.412;5.540;2023-05-10T06:57:50;54.15;;;32.97;;
24261;SDS011;12385;51.412;5.540;2023-05-10T07:00:16;55.10;;;31.90;;
24261;SDS011;12385;51.412;5.540;2023-05-10T07:02:42;55.50;;;33.67;;
24261;SDS011;12385;51.412;5.540;2023-05-10T07:05:08;52.65;;;31.88;;
24261;SDS011;12385;51.412;5.540;2023-05-10T07:07:34;52.70;;;33.05;;
24261;SDS011;12385;51.412;5.540;2023-05-10T07:10:00;48.88;;;30.85;;
24261;SDS011;12385;51.412;5.540;2023-05-10T07:12:25;49.92;;;31.73;;
24261;SDS011;12385;51.412;5.540;2023-05-10T07:14:51;51.40;;;32.50;;
24261;SDS011;12385;51.412;5.540;2023-05-10T07:17:17;48.92;;;30.70;;
24261;SDS011;12385;51.412;5.540;2023-05-10T07:19:43;53.45;;;30.42;;
24261;SDS011;12385;51.412;5.540;2023-05-10T07:22:08;45.97;;;28.63;;
24261;SDS011;12385;51.412;5.540;2023-05-10T07:24:34;48.38;;;29.25;;
24261;SDS011;12385;51.412;5.540;2023-05-10T07:27:00;51.47;;;29.55;;
24261;SDS011;12385;51.412;5.540;2023-05-10T07:29:25;46.22;;;29.10;;
24261;SDS011;12385;51.412;5.540;2023-05-10T07:31:52;46.50;;;28.70;;
24261;SDS011;12385;51.412;5.540;2023-05-10T07:34:18;46.83;;;28.83;;
24261;SDS011;12385;51.412;5.540;2023-05-10T07:36:43;48.15;;;28.02;;
24261;SDS011;12385;51.412;5.540;2023-05-10T07:39:09;45.30;;;27.27;;
24261;SDS011;12385;51.412;5.540;2023-05-10T07:41:35;43.22;;;27.48;;
24261;SDS011;12385;51.412;5.540;2023-05-10T07:44:02;44.40;;;25.50;;
24261;SDS011;12385;51.412;5.540;2023-05-10T07:46:28;38.97;;;23.35;;
24261;SDS011;12385;51.412;5.540;2023-05-10T07:48:54;37.33;;;22.08;;
24261;SDS011;12385;51.412;5.540;2023-05-10T07:51:20;29.02;;;19.27;;
24261;SDS011;12385;51.412;5.540;2023-05-10T07:53:46;32.55;;;20.17;;
24261;SDS011;12385;51.412;5.540;2023-05-10T07:56:22;34.15;;;21.00;;
24261;SDS011;12385;51.412;5.540;2023-05-10T07:58:54;34.67;;;18.08;;
24261;SDS011;12385;51.412;5.540;2023-05-10T08:01:21;27.85;;;15.85;;
24261;SDS011;12385;51.412;5.540;2023-05-10T08:03:48;19.95;;;12.77;;
24261;SDS011;12385;51.412;5.540;2023-05-10T08:06:16;18.92;;;12.85;;
24261;SDS011;12385;51.412;5.540;2023-05-10T08:08:42;23.23;;;13.02;;
24261;SDS011;12385;51.412;5.540;2023-05-10T08:11:10;26.70;;;14.43;;
24261;SDS011;12385;51.412;5.540;2023-05-10T08:13:36;22.48;;;13.20;;
24261;SDS011;12385;51.412;5.540;2023-05-10T08:16:01;20.20;;;12.82;;
24261;SDS011;12385;51.412;5.540;2023-05-10T08:18:27;23.92;;;13.45;;
24261;SDS011;12385;51.412;5.540;2023-05-10T08:20:53;22.90;;;12.63;;
24261;SDS011;12385;51.412;5.540;2023-05-10T08:23:19;18.02;;;13.07;;
24261;SDS011;12385;51.412;5.540;2023-05-10T08:25:45;20.95;;;12.52;;
24261;SDS011;12385;51.412;5.540;2023-05-10T08:28:11;21.17;;;12.18;;
24261;SDS011;12385;51.412;5.540;2023-05-10T08:30:36;25.05;;;12.50;;
24261;SDS011;12385;51.412;5.540;2023-05-10T08:33:02;18.88;;;12.25;;
24261;SDS011;12385;51.412;5.540;2023-05-10T08:35:27;24.15;;;11.98;;
24261;SDS011;12385;51.412;5.540;2023-05-10T08:37:53;22.70;;;13.07;;
24261;SDS011;12385;51.412;5.540;2023-05-10T08:40:19;22.52;;;12.80;;
24261;SDS011;12385;51.412;5.540;2023-05-10T08:42:48;22.02;;;12.88;;
24261;SDS011;12385;51.412;5.540;2023-05-10T08:45:22;17.02;;;11.75;;
24261;SDS011;12385;51.412;5.540;2023-05-10T08:47:49;21.70;;;12.85;;
24261;SDS011;12385;51.412;5.540;2023-05-10T08:50:17;17.60;;;11.38;;
24261;SDS011;12385;51.412;5.540;2023-05-10T08:52:46;21.23;;;12.00;;
24261;SDS011;12385;51.412;5.540;2023-05-10T08:57:42;19.67;;;10.80;;
24261;SDS011;12385;51.412;5.540;2023-05-10T09:00:08;19.10;;;11.30;;
24261;SDS011;12385;51.412;5.540;2023-05-10T09:02:35;23.00;;;11.85;;
24261;SDS011;12385;51.412;5.540;2023-05-10T09:05:03;16.42;;;9.75;;
24261;SDS011;12385;51.412;5.540;2023-05-10T09:07:29;16.30;;;9.15;;
24261;SDS011;12385;51.412;5.540;2023-05-10T09:09:55;18.65;;;9.23;;
24261;SDS011;12385;51.412;5.540;2023-05-10T09:12:22;16.75;;;9.90;;
24261;SDS011;12385;51.412;5.540;2023-05-10T09:14:48;14.68;;;9.30;;
24261;SDS011;12385;51.412;5.540;2023-05-10T09:17:17;15.47;;;9.47;;
24261;SDS011;12385;51.412;5.540;2023-05-10T09:19:44;14.05;;;9.40;;
24261;SDS011;12385;51.412;5.540;2023-05-10T09:22:10;14.63;;;9.75;;
24261;SDS011;12385;51.412;5.540;2023-05-10T09:24:36;17.50;;;10.80;;
24261;SDS011;12385;51.412;5.540;2023-05-10T09:27:07;18.25;;;11.15;;
24261;SDS011;12385;51.412;5.540;2023-05-10T09:29:42;15.95;;;11.77;;
24261;SDS011;12385;51.412;5.540;2023-05-10T09:32:08;18.23;;;11.80;;
24261;SDS011;12385;51.412;5.540;2023-05-10T09:34:33;14.65;;;11.23;;
24261;SDS011;12385;51.412;5.540;2023-05-10T09:37:05;19.70;;;11.43;;
24261;SDS011;12385;51.412;5.540;2023-05-10T09:39:35;17.95;;;12.10;;
24261;SDS011;12385;51.412;5.540;2023-05-10T09:42:06;16.55;;;12.35;;
24261;SDS011;12385;51.412;5.540;2023-05-10T09:44:33;17.23;;;13.10;;
24261;SDS011;12385;51.412;5.540;2023-05-10T09:47:00;18.05;;;13.00;;
24261;SDS011;12385;51.412;5.540;2023-05-10T09:49:26;19.20;;;12.73;;
24261;SDS011;12385;51.412;5.540;2023-05-10T09:52:02;17.48;;;12.35;;
24261;SDS011;12385;51.412;5.540;2023-05-10T09:54:29;14.60;;;10.98;;
24261;SDS011;12385;51.412;5.540;2023-05-10T09:56:55;16.02;;;10.52;;
24261;SDS011;12385;51.412;5.540;2023-05-10T09:59:20;13.63;;;10.35;;
24261;SDS011;12385;51.412;5.540;2023-05-10T10:01:50;13.10;;;10.27;;
24261;SDS011;12385;51.412;5.540;2023-05-10T10:06:41;15.48;;;10.20;;
24261;SDS011;12385;51.412;5.540;2023-05-10T10:09:07;14.10;;;10.00;;
24261;SDS011;12385;51.412;5.540;2023-05-10T10:11:35;13.05;;;9.55;;
24261;SDS011;12385;51.412;5.540;2023-05-10T10:14:02;14.35;;;9.77;;
24261;SDS011;12385;51.412;5.540;2023-05-10T10:16:29;14.70;;;9.73;;
24261;SDS011;12385;51.412;5.540;2023-05-10T10:18:55;14.32;;;9.30;;
24261;SDS011;12385;51.412;5.540;2023-05-10T10:21:21;13.25;;;8.65;;
24261;SDS011;12385;51.412;5.540;2023-05-10T10:23:47;13.45;;;8.82;;
24261;SDS011;12385;51.412;5.540;2023-05-10T10:26:13;12.02;;;8.07;;
24261;SDS011;12385;51.412;5.540;2023-05-10T10:31:23;11.60;;;7.95;;
24261;SDS011;12385;51.412;5.540;2023-05-10T10:34:06;10.65;;;5.97;;
24261;SDS011;12385;51.412;5.540;2023-05-10T10:37:06;9.35;;;6.35;;
24261;SDS011;12385;51.412;5.540;2023-05-10T10:39:29;9.80;;;6.10;;
24261;SDS011;12385;51.412;5.540;2023-05-10T10:41:56;6.18;;;4.90;;
24261;SDS011;12385;51.412;5.540;2023-05-10T10:52:22;13.98;;;8.57;;
24261;SDS011;12385;51.412;5.540;2023-05-10T10:55:08;12.13;;;9.68;;
24261;SDS011;12385;51.412;5.540;2023-05-10T10:57:52;18.40;;;14.40;;
24261;SDS011;12385;51.412;5.540;2023-05-10T11:00:38;19.60;;;15.07;;
24261;SDS011;12385;51.412;5.540;2023-05-10T11:03:09;23.15;;;16.33;;
24261;SDS011;12385;51.412;5.540;2023-05-10T11:05:44;21.58;;;16.77;;
24261;SDS011;12385;51.412;5.540;2023-05-10T11:10:53;23.42;;;17.45;;
24261;SDS011;12385;51.412;5.540;2023-05-10T11:13:29;18.42;;;15.02;;
24261;SDS011;12385;51.412;5.540;2023-05-10T11:18:57;19.80;;;16.08;;
24261;SDS011;12385;51.412;5.540;2023-05-10T11:21:31;21.83;;;16.42;;
24261;SDS011;12385;51.412;5.540;2023-05-10T11:23:59;22.50;;;16.48;;
24261;SDS011;12385;51.412;5.540;2023-05-10T11:26:34;20.92;;;15.32;;
24261;SDS011;12385;51.412;5.540;2023-05-10T11:29:01;21.17;;;15.55;;
24261;SDS011;12385;51.412;5.540;2023-05-10T11:31:28;19.83;;;14.85;;
24261;SDS011;12385;51.412;5.540;2023-05-10T11:33:54;17.80;;;13.88;;
24261;SDS011;12385;51.412;5.540;2023-05-10T11:36:28;19.50;;;13.80;;
24261;SDS011;12385;51.412;5.540;2023-05-10T11:38:56;20.80;;;14.77;;
24261;SDS011;12385;51.412;5.540;2023-05-10T11:41:22;19.70;;;14.77;;
24261;SDS011;12385;51.412;5.540;2023-05-10T11:43:49;23.42;;;15.90;;
24261;SDS011;12385;51.412;5.540;2023-05-10T11:46:17;17.75;;;14.02;;
24261;SDS011;12385;51.412;5.540;2023-05-10T11:48:45;20.40;;;15.37;;
24261;SDS011;12385;51.412;5.540;2023-05-10T11:51:12;27.50;;;16.00;;
24261;SDS011;12385;51.412;5.540;2023-05-10T11:53:37;18.95;;;15.60;;
24261;SDS011;12385;51.412;5.540;2023-05-10T11:56:07;24.67;;;15.65;;
24261;SDS011;12385;51.412;5.540;2023-05-10T11:58:36;17.65;;;13.57;;
24261;SDS011;12385;51.412;5.540;2023-05-10T12:01:03;16.75;;;13.00;;
24261;SDS011;12385;51.412;5.540;2023-05-10T12:03:30;15.88;;;12.57;;
24261;SDS011;12385;51.412;5.540;2023-05-10T12:05:57;18.42;;;13.02;;
24261;SDS011;12385;51.412;5.540;2023-05-10T12:08:24;18.65;;;13.00;;
24261;SDS011;12385;51.412;5.540;2023-05-10T12:10:52;17.38;;;13.02;;
24261;SDS011;12385;51.412;5.540;2023-05-10T12:13:19;17.35;;;13.85;;
24261;SDS011;12385;51.412;5.540;2023-05-10T12:15:45;18.10;;;13.07;;
24261;SDS011;12385;51.412;5.540;2023-05-10T12:18:12;16.67;;;12.40;;
24261;SDS011;12385;51.412;5.540;2023-05-10T12:20:39;19.15;;;12.25;;
24261;SDS011;12385;51.412;5.540;2023-05-10T12:23:05;18.15;;;13.85;;
24261;SDS011;12385;51.412;5.540;2023-05-10T12:25:33;17.17;;;12.45;;
24261;SDS011;12385;51.412;5.540;2023-05-10T12:28:02;18.80;;;13.15;;
24261;SDS011;12385;51.412;5.540;2023-05-10T12:30:30;19.98;;;13.07;;
24261;SDS011;12385;51.412;5.540;2023-05-10T12:35:45;19.27;;;13.90;;
24261;SDS011;12385;51.412;5.540;2023-05-10T12:38:34;17.83;;;13.38;;
24261;SDS011;12385;51.412;5.540;2023-05-10T12:41:03;20.30;;;13.07;;
24261;SDS011;12385;51.412;5.540;2023-05-10T12:43:31;19.30;;;13.18;;
24261;SDS011;12385;51.412;5.540;2023-05-10T12:45:57;19.65;;;13.38;;
24261;SDS011;12385;51.412;5.540;2023-05-10T12:48:23;17.42;;;12.90;;
24261;SDS011;12385;51.412;5.540;2023-05-10T12:50:49;18.67;;;13.18;;
24261;SDS011;12385;51.412;5.540;2023-05-10T12:53:15;20.90;;;12.88;;
24261;SDS011;12385;51.412;5.540;2023-05-10T12:55:42;18.90;;;13.02;;
24261;SDS011;12385;51.412;5.540;2023-05-10T12:58:08;20.80;;;12.60;;
24261;SDS011;12385;51.412;5.540;2023-05-10T13:00:34;17.40;;;12.30;;
24261;SDS011;12385;51.412;5.540;2023-05-10T13:03:00;15.02;;;11.20;;
24261;SDS011;12385;51.412;5.540;2023-05-10T13:05:25;13.52;;;9.30;;
24261;SDS011;12385;51.412;5.540;2023-05-10T13:07:51;11.20;;;8.00;;
24261;SDS011;12385;51.412;5.540;2023-05-10T13:10:16;9.93;;;7.20;;
24261;SDS011;12385;51.412;5.540;2023-05-10T13:12:42;10.63;;;6.63;;
24261;SDS011;12385;51.412;5.540;2023-05-10T13:15:08;9.52;;;6.30;;
24261;SDS011;12385;51.412;5.540;2023-05-10T13:17:34;8.07;;;4.75;;
24261;SDS011;12385;51.412;5.540;2023-05-10T13:19:59;6.28;;;4.60;;
24261;SDS011;12385;51.412;5.540;2023-05-10T13:22:25;7.63;;;5.60;;
24261;SDS011;12385;51.412;5.540;2023-05-10T13:24:51;9.85;;;6.72;;
24261;SDS011;12385;51.412;5.540;2023-05-10T13:27:16;10.18;;;7.70;;
24261;SDS011;12385;51.412;5.540;2023-05-10T13:29:42;12.35;;;8.95;;
24261;SDS011;12385;51.412;5.540;2023-05-10T13:32:07;13.05;;;10.40;;
24261;SDS011;12385;51.412;5.540;2023-05-10T13:34:33;13.80;;;11.45;;
24261;SDS011;12385;51.412;5.540;2023-05-10T13:37:00;18.08;;;11.82;;
24261;SDS011;12385;51.412;5.540;2023-05-10T13:39:26;16.48;;;12.27;;
24261;SDS011;12385;51.412;5.540;2023-05-10T13:41:52;13.80;;;12.05;;
24261;SDS011;12385;51.412;5.540;2023-05-10T13:44:17;17.08;;;12.60;;
24261;SDS011;12385;51.412;5.540;2023-05-10T13:46:45;17.90;;;12.52;;
24261;SDS011;12385;51.412;5.540;2023-05-10T13:49:11;14.77;;;12.95;;
24261;SDS011;12385;51.412;5.540;2023-05-10T13:51:37;17.88;;;14.27;;
24261;SDS011;12385;51.412;5.540;2023-05-10T13:54:02;22.73;;;17.38;;
24261;SDS011;12385;51.412;5.540;2023-05-10T13:56:28;25.48;;;19.13;;
24261;SDS011;12385;51.412;5.540;2023-05-10T13:58:54;25.92;;;20.30;;
24261;SDS011;12385;51.412;5.540;2023-05-10T14:01:20;28.25;;;21.98;;
24261;SDS011;12385;51.412;5.540;2023-05-10T14:03:46;32.03;;;23.25;;
24261;SDS011;12385;51.412;5.540;2023-05-10T14:06:12;33.80;;;24.55;;
24261;SDS011;12385;51.412;5.540;2023-05-10T14:08:38;37.50;;;25.80;;
24261;SDS011;12385;51.412;5.540;2023-05-10T14:11:04;39.05;;;26.45;;
24261;SDS011;12385;51.412;5.540;2023-05-10T14:13:29;29.08;;;20.88;;
24261;SDS011;12385;51.412;5.540;2023-05-10T14:15:55;19.15;;;14.23;;
24261;SDS011;12385;51.412;5.540;2023-05-10T14:18:21;16.17;;;11.60;;
24261;SDS011;12385;51.412;5.540;2023-05-10T14:20:47;14.18;;;9.32;;
24261;SDS011;12385;51.412;5.540;2023-05-10T14:23:12;14.55;;;9.15;;
24261;SDS011;12385;51.412;5.540;2023-05-10T14:25:39;9.95;;;7.03;;
24261;SDS011;12385;51.412;5.540;2023-05-10T14:28:05;11.75;;;7.55;;
24261;SDS011;12385;51.412;5.540;2023-05-10T14:30:31;8.13;;;6.00;;
24261;SDS011;12385;51.412;5.540;2023-05-10T14:32:59;7.07;;;4.63;;
24261;SDS011;12385;51.412;5.540;2023-05-10T14:35:27;7.20;;;3.35;;
24261;SDS011;12385;51.412;5.540;2023-05-10T14:37:53;4.80;;;3.35;;
24261;SDS011;12385;51.412;5.540;2023-05-10T14:40:18;7.07;;;4.05;;
24261;SDS011;12385;51.412;5.540;2023-05-10T14:42:44;7.80;;;4.40;;
24261;SDS011;12385;51.412;5.540;2023-05-10T14:45:10;7.55;;;4.80;;
24261;SDS011;12385;51.412;5.540;2023-05-10T14:47:36;7.65;;;5.07;;
24261;SDS011;12385;51.412;5.540;2023-05-10T14:50:01;8.30;;;5.30;;
24261;SDS011;12385;51.412;5.540;2023-05-10T14:52:27;7.30;;;5.03;;
24261;SDS011;12385;51.412;5.540;2023-05-10T14:54:52;8.40;;;5.53;;